Time;durP1;ratioP1;P1;durP2;ratioP2;P2;SDS_P1;SDS_P2;PMS_P1;PMS_P2;Temp;Humidity;BMP_temperature;BMP_pressure;BME280_temperature;BME280_humidity;BME280_pressure;Samples;Min_cycle;Max_cycle;Signal;HPM_P1;HPM_P2
2021/03/09 00:00:25;;;;;;;21.63;19.37;;;;;;;;;;5051259;28;20442;-13
2021/03/09 00:02:53;;;;;;;21.37;19.27;;;;;;;;;;5051724;28;20446;-13
2021/03/09 00:05:23;;;;;;;23.20;19.00;;;;;;;;;;5032899;28;20454;-14
2021/03/09 00:07:54;;;;;;;26.43;20.93;;;;;;;;;;5051582;28;20449;-14
2021/03/09 00:10:21;;;;;;;25.63;20.37;;;;;;;;;;5034152;28;20473;-13
2021/03/09 00:12:48;;;;;;;22.40;20.10;;;;;;;;;;5034527;28;20501;-14
2021/03/09 00:15:16;;;;;;;21.20;18.20;;;;;;;;;;5052451;28;20449;-14
2021/03/09 00:17:43;;;;;;;20.40;18.40;;;;;;;;;;5053303;28;20457;-14
2021/03/09 00:20:11;;;;;;;20.40;18.30;;;;;;;;;;5052637;28;21032;-13
2021/03/09 00:22:40;;;;;;;21.00;18.90;;;;;;;;;;5034871;28;20446;-13
2021/03/09 00:25:09;;;;;;;19.23;17.40;;;;;;;;;;5052909;28;20437;-14
2021/03/09 00:27:36;;;;;;;20.23;18.20;;;;;;;;;;5052178;28;20445;-13
2021/03/09 00:30:04;;;;;;;23.90;20.43;;;;;;;;;;5033130;28;20988;-13
2021/03/09 00:32:31;;;;;;;20.00;17.90;;;;;;;;;;5052374;28;20454;-13
2021/03/09 00:34:58;;;;;;;21.73;19.73;;;;;;;;;;5053326;28;20439;-14
2021/03/09 00:37:26;;;;;;;22.27;19.93;;;;;;;;;;5057442;28;20445;-13
2021/03/09 00:39:54;;;;;;;21.60;19.30;;;;;;;;;;5056665;28;20460;-14
2021/03/09 00:42:22;;;;;;;20.87;18.77;;;;;;;;;;5056469;28;20449;-14
2021/03/09 00:44:50;;;;;;;21.27;19.17;;;;;;;;;;5058299;28;20429;-13
2021/03/09 00:47:18;;;;;;;22.00;19.90;;;;;;;;;;5056204;28;20592;-13
2021/03/09 00:49:45;;;;;;;20.43;18.40;;;;;;;;;;5039641;28;20918;-14
2021/03/09 00:52:14;;;;;;;18.73;16.93;;;;;;;;;;5039861;28;20446;-15
2021/03/09 00:54:42;;;;;;;24.00;19.00;;;;;;;;;;5064517;28;20583;-15
2021/03/09 00:57:10;;;;;;;22.13;19.47;;;;;;;;;;5030536;28;20596;-16
2021/03/09 00:59:40;;;;;;;20.00;17.90;;;;;;;;;;5042993;28;20427;-16
2021/03/09 01:02:08;;;;;;;20.40;18.40;;;;;;;;;;5037974;28;20430;-15
2021/03/09 01:04:40;;;;;;;21.10;19.17;;;;;;;;;;5020179;28;20438;-16
2021/03/09 01:07:08;;;;;;;20.07;17.97;;;;;;;;;;5036843;28;20946;-16
2021/03/09 01:09:37;;;;;;;17.30;15.70;;;;;;;;;;5019998;28;20446;-15
2021/03/09 01:12:05;;;;;;;19.30;17.47;;;;;;;;;;5038037;28;20511;-15
2021/03/09 01:14:35;;;;;;;18.83;17.03;;;;;;;;;;5037837;28;20551;-15
2021/03/09 01:17:04;;;;;;;19.60;17.70;;;;;;;;;;5036960;28;20434;-15
2021/03/09 01:19:31;;;;;;;19.27;17.50;;;;;;;;;;5036845;28;20466;-15
2021/03/09 01:21:58;;;;;;;19.17;17.17;;;;;;;;;;5047292;28;21004;-15
2021/03/09 01:24:26;;;;;;;18.50;16.77;;;;;;;;;;5060307;28;20605;-17
2021/03/09 01:26:53;;;;;;;20.63;18.57;;;;;;;;;;5038585;28;21099;-16
2021/03/09 01:29:20;;;;;;;19.97;17.97;;;;;;;;;;5055794;28;20434;-15
2021/03/09 01:31:49;;;;;;;18.00;16.17;;;;;;;;;;5056230;28;20468;-15
2021/03/09 01:34:18;;;;;;;18.90;16.90;;;;;;;;;;5037820;28;20527;-15
2021/03/09 01:36:45;;;;;;;17.47;15.87;;;;;;;;;;5037459;28;20462;-14
2021/03/09 01:39:14;;;;;;;20.43;18.50;;;;;;;;;;5061722;28;20933;-16
2021/03/09 01:41:42;;;;;;;20.53;18.10;;;;;;;;;;5058191;28;20441;-15
2021/03/09 01:44:09;;;;;;;19.40;17.30;;;;;;;;;;5039533;28;20434;-15
2021/03/09 01:46:38;;;;;;;20.00;18.30;;;;;;;;;;5056451;28;20430;-15
2021/03/09 01:49:08;;;;;;;18.70;16.90;;;;;;;;;;5039107;28;20474;-15
2021/03/09 01:51:36;;;;;;;20.20;18.20;;;;;;;;;;5037577;28;20453;-15
2021/03/09 01:54:03;;;;;;;18.47;16.70;;;;;;;;;;5055507;28;20461;-15
2021/03/09 01:56:32;;;;;;;19.93;17.93;;;;;;;;;;5056935;28;20753;-15
2021/03/09 01:59:02;;;;;;;20.10;18.20;;;;;;;;;;5057831;28;20485;-14
2021/03/09 02:01:31;;;;;;;19.10;17.13;;;;;;;;;;5055043;28;20829;-14
2021/03/09 02:03:58;;;;;;;18.63;16.73;;;;;;;;;;5056825;28;20438;-16
2021/03/09 02:06:28;;;;;;;17.90;16.30;;;;;;;;;;5039698;28;20434;-15
2021/03/09 02:08:56;;;;;;;18.53;16.80;;;;;;;;;;5054108;28;20446;-15
2021/03/09 02:11:32;;;;;;;19.60;16.57;;;;;;;;;;5037854;28;20484;-15
2021/03/09 02:14:03;;;;;;;17.70;16.10;;;;;;;;;;5056093;28;20465;-15
2021/03/09 02:16:33;;;;;;;18.80;17.00;;;;;;;;;;5055308;28;20870;-15
2021/03/09 02:19:06;;;;;;;19.23;16.63;;;;;;;;;;5037859;28;20433;-15
2021/03/09 02:21:43;;;;;;;19.33;17.50;;;;;;;;;;5056614;28;20434;-16
2021/03/09 02:24:30;;;;;;;18.60;16.60;;;;;;;;;;5056587;28;20475;-15
2021/03/09 02:27:23;;;;;;;18.70;17.00;;;;;;;;;;5055837;28;20481;-14
2021/03/09 02:30:03;;;;;;;18.77;17.00;;;;;;;;;;5042026;28;20473;-15
2021/03/09 02:32:32;;;;;;;18.83;17.03;;;;;;;;;;5054683;28;20484;-15
2021/03/09 02:35:01;;;;;;;18.03;16.33;;;;;;;;;;5055062;28;20528;-14
2021/03/09 02:37:31;;;;;;;17.00;15.50;;;;;;;;;;5055991;28;21045;-16
2021/03/09 02:40:01;;;;;;;18.60;16.80;;;;;;;;;;5037337;28;20484;-15
2021/03/09 02:42:30;;;;;;;18.80;16.97;;;;;;;;;;5055695;28;20476;-15
2021/03/09 02:45:00;;;;;;;19.33;17.53;;;;;;;;;;5037820;28;20579;-15
2021/03/09 02:47:30;;;;;;;18.53;16.70;;;;;;;;;;5054366;28;20449;-14
2021/03/09 02:50:11;;;;;;;18.80;16.97;;;;;;;;;;5054358;28;20448;-14
2021/03/09 02:52:39;;;;;;;17.10;15.60;;;;;;;;;;5055094;28;21105;-16
2021/03/09 02:55:12;;;;;;;18.77;16.83;;;;;;;;;;5054819;28;20474;-16
2021/03/09 02:57:41;;;;;;;19.13;17.30;;;;;;;;;;5054442;28;21049;-15
2021/03/09 03:00:11;;;;;;;17.77;16.17;;;;;;;;;;5054283;28;20460;-14
2021/03/09 03:02:39;;;;;;;17.63;15.83;;;;;;;;;;5036107;28;20482;-15
2021/03/09 03:05:08;;;;;;;17.63;16.07;;;;;;;;;;5057103;28;20736;-15
2021/03/09 03:07:35;;;;;;;18.90;17.10;;;;;;;;;;5058509;28;20438;-13
2021/03/09 03:10:04;;;;;;;18.57;16.93;;;;;;;;;;5054505;28;20595;-13
2021/03/09 03:12:32;;;;;;;18.47;16.83;;;;;;;;;;5053838;28;20434;-13
2021/03/09 03:15:00;;;;;;;16.60;15.20;;;;;;;;;;5062059;28;20493;-15
2021/03/09 03:17:30;;;;;;;18.13;16.43;;;;;;;;;;5045713;28;20441;-14
2021/03/09 03:20:01;;;;;;;16.73;15.23;;;;;;;;;;5062862;28;20884;-14
2021/03/09 03:22:30;;;;;;;18.63;17.03;;;;;;;;;;5060590;28;20434;-14
2021/03/09 03:24:57;;;;;;;16.37;15.07;;;;;;;;;;5060460;28;20537;-14
2021/03/09 03:27:26;;;;;;;17.30;15.70;;;;;;;;;;5061118;28;20457;-14
2021/03/09 03:29:56;;;;;;;18.23;16.63;;;;;;;;;;5061149;28;20446;-14
2021/03/09 03:32:25;;;;;;;17.80;16.23;;;;;;;;;;5060573;28;20438;-15
2021/03/09 03:34:55;;;;;;;17.87;16.27;;;;;;;;;;5043012;28;20572;-15
2021/03/09 03:37:24;;;;;;;17.70;15.90;;;;;;;;;;5042641;28;20438;-14
2021/03/09 03:39:52;;;;;;;16.83;15.30;;;;;;;;;;5060129;28;20495;-14
2021/03/09 03:42:20;;;;;;;19.40;17.50;;;;;;;;;;5061266;28;20438;-15
2021/03/09 03:44:48;;;;;;;17.60;16.10;;;;;;;;;;5038564;28;20489;-15
2021/03/09 03:47:17;;;;;;;19.33;17.37;;;;;;;;;;5039453;28;20433;-14
2021/03/09 03:49:44;;;;;;;19.10;17.13;;;;;;;;;;5057031;28;20477;-15
2021/03/09 03:52:20;;;;;;;18.30;16.60;;;;;;;;;;5040286;28;20445;-14
2021/03/09 03:54:52;;;;;;;18.60;17.00;;;;;;;;;;5059059;28;20523;-14
2021/03/09 03:57:23;;;;;;;19.17;17.37;;;;;;;;;;5054477;28;20438;-14
2021/03/09 03:59:54;;;;;;;16.97;15.33;;;;;;;;;;5053915;28;20461;-16
2021/03/09 04:02:21;;;;;;;19.03;17.03;;;;;;;;;;5055291;28;20441;-15
2021/03/09 04:04:49;;;;;;;18.73;16.80;;;;;;;;;;5055294;28;20430;-16
2021/03/09 04:07:22;;;;;;;18.53;16.70;;;;;;;;;;5055984;28;20517;-15
2021/03/09 04:09:52;;;;;;;17.43;15.90;;;;;;;;;;5057234;28;20831;-15
2021/03/09 04:12:20;;;;;;;18.43;16.77;;;;;;;;;;5058914;28;20738;-16
2021/03/09 04:14:47;;;;;;;17.00;15.27;;;;;;;;;;5060522;28;20575;-15
2021/03/09 04:17:14;;;;;;;18.33;16.40;;;;;;;;;;5059015;28;20437;-15
2021/03/09 04:19:43;;;;;;;19.20;17.50;;;;;;;;;;5059957;28;20451;-16
2021/03/09 04:22:14;;;;;;;18.43;16.63;;;;;;;;;;5058208;28;20442;-15
2021/03/09 04:24:44;;;;;;;18.10;16.57;;;;;;;;;;5058790;28;20429;-14
2021/03/09 04:27:20;;;;;;;19.23;17.33;;;;;;;;;;5039198;28;20465;-15
2021/03/09 04:29:49;;;;;;;17.30;15.70;;;;;;;;;;5057997;28;20456;-14
2021/03/09 04:32:18;;;;;;;19.70;18.00;;;;;;;;;;5058024;28;20448;-14
2021/03/09 04:34:45;;;;;;;19.90;17.90;;;;;;;;;;5062187;28;20476;-16
2021/03/09 04:37:15;;;;;;;20.60;18.10;;;;;;;;;;5065707;28;20487;-15
2021/03/09 04:39:44;;;;;;;20.23;17.43;;;;;;;;;;5059739;28;20572;-14
2021/03/09 04:42:12;;;;;;;18.20;16.70;;;;;;;;;;5045296;28;20496;-15
2021/03/09 04:44:39;;;;;;;19.27;17.60;;;;;;;;;;5063918;28;20446;-15
2021/03/09 04:47:08;;;;;;;19.97;18.07;;;;;;;;;;5058917;28;20772;-16
2021/03/09 04:49:37;;;;;;;20.00;18.20;;;;;;;;;;5058007;28;20460;-15
2021/03/09 04:52:04;;;;;;;19.47;17.57;;;;;;;;;;5055705;28;20493;-15
2021/03/09 04:54:34;;;;;;;23.60;18.30;;;;;;;;;;5057444;28;20559;-16
2021/03/09 04:57:03;;;;;;;17.73;16.07;;;;;;;;;;5038481;28;20529;-14
2021/03/09 04:59:30;;;;;;;21.07;17.70;;;;;;;;;;5055144;28;20445;-15
2021/03/09 05:02:00;;;;;;;18.10;16.50;;;;;;;;;;5023205;28;20449;-15
2021/03/09 05:04:33;;;;;;;18.17;16.63;;;;;;;;;;5061581;28;20445;-14
2021/03/09 05:07:08;;;;;;;19.90;17.77;;;;;;;;;;5064689;28;20438;-14
2021/03/09 05:09:37;;;;;;;20.40;18.43;;;;;;;;;;5063695;28;20555;-15
2021/03/09 05:12:08;;;;;;;19.17;17.67;;;;;;;;;;5063776;28;20434;-14
2021/03/09 05:14:35;;;;;;;19.53;17.77;;;;;;;;;;5063822;28;20695;-14
2021/03/09 05:17:04;;;;;;;19.43;17.60;;;;;;;;;;5062312;28;20441;-15
2021/03/09 05:19:32;;;;;;;21.13;17.80;;;;;;;;;;5060316;28;20497;-15
2021/03/09 05:22:00;;;;;;;19.67;17.77;;;;;;;;;;5061176;28;20437;-15
2021/03/09 05:24:28;;;;;;;19.10;17.30;;;;;;;;;;5045461;28;20705;-15
2021/03/09 05:27:01;;;;;;;20.30;18.47;;;;;;;;;;5063457;28;20447;-14
2021/03/09 05:29:30;;;;;;;20.30;18.63;;;;;;;;;;5044480;28;20446;-14
2021/03/09 05:31:58;;;;;;;19.90;17.87;;;;;;;;;;5045153;28;20459;-14
2021/03/09 05:34:26;;;;;;;20.27;18.20;;;;;;;;;;5043282;28;20817;-14
2021/03/09 05:36:54;;;;;;;21.53;19.43;;;;;;;;;;5060249;28;20195;-14
2021/03/09 05:39:21;;;;;;;20.67;18.80;;;;;;;;;;5060677;28;20452;-14
2021/03/09 05:41:50;;;;;;;19.70;17.80;;;;;;;;;;5060984;28;20457;-14
2021/03/09 05:44:18;;;;;;;19.67;18.00;;;;;;;;;;5061450;28;20442;-15
2021/03/09 05:46:52;;;;;;;20.27;18.43;;;;;;;;;;5060576;28;20441;-15
2021/03/09 05:49:20;;;;;;;20.47;18.37;;;;;;;;;;5061695;28;20440;-14
2021/03/09 05:51:48;;;;;;;17.10;15.90;;;;;;;;;;5041673;28;20469;-14
2021/03/09 05:54:19;;;;;;;21.50;18.53;;;;;;;;;;5058683;28;20469;-14
2021/03/09 05:56:46;;;;;;;20.27;18.37;;;;;;;;;;5059546;28;21159;-15
2021/03/09 05:59:14;;;;;;;22.40;20.17;;;;;;;;;;5058948;28;20442;-14
2021/03/09 06:01:44;;;;;;;19.80;18.03;;;;;;;;;;5056456;28;20448;-14
2021/03/09 06:04:13;;;;;;;20.93;18.80;;;;;;;;;;5057360;28;20469;-14
2021/03/09 06:06:43;;;;;;;20.30;18.27;;;;;;;;;;5057712;28;21044;-15
2021/03/09 06:09:40;;;;;;;19.87;18.07;;;;;;;;;;5056468;28;20441;-15
2021/03/09 06:12:13;;;;;;;21.30;19.20;;;;;;;;;;5058529;28;20434;-15
2021/03/09 06:14:41;;;;;;;22.13;18.27;;;;;;;;;;5055820;28;20470;-14
2021/03/09 06:17:11;;;;;;;21.23;18.97;;;;;;;;;;5055171;28;20453;-14
2021/03/09 06:20:00;;;;;;;20.40;18.50;;;;;;;;;;5053503;28;21215;-14
2021/03/09 06:22:40;;;;;;;22.93;20.50;;;;;;;;;;5038244;28;20502;-14
2021/03/09 06:25:10;;;;;;;19.77;18.00;;;;;;;;;;5054422;28;20437;-15
2021/03/09 06:27:44;;;;;;;20.20;17.40;;;;;;;;;;5052862;28;20438;-16
2021/03/09 06:30:14;;;;;;;21.33;19.30;;;;;;;;;;5055633;28;20476;-15
2021/03/09 06:32:43;;;;;;;20.97;18.07;;;;;;;;;;5050923;28;20442;-15
2021/03/09 06:35:28;;;;;;;20.10;17.73;;;;;;;;;;5052064;28;20986;-15
2021/03/09 06:38:15;;;;;;;20.13;18.13;;;;;;;;;;5033759;28;20438;-14
2021/03/09 06:40:45;;;;;;;19.30;17.43;;;;;;;;;;5049866;28;20437;-15
2021/03/09 06:43:15;;;;;;;21.07;19.07;;;;;;;;;;5046845;28;20472;-15
2021/03/09 06:45:42;;;;;;;20.10;18.20;;;;;;;;;;5045140;28;20496;-15
2021/03/09 06:48:19;;;;;;;20.57;18.57;;;;;;;;;;5047624;28;20463;-15
2021/03/09 06:50:46;;;;;;;22.50;19.43;;;;;;;;;;5043240;28;20445;-15
2021/03/09 06:53:26;;;;;;;21.37;18.87;;;;;;;;;;5026438;28;20446;-14
2021/03/09 06:55:53;;;;;;;20.40;18.20;;;;;;;;;;5025891;28;20440;-15
2021/03/09 06:58:27;;;;;;;20.57;18.30;;;;;;;;;;5045363;28;20762;-14
2021/03/09 07:00:55;;;;;;;20.93;18.80;;;;;;;;;;5026307;28;20468;-14
2021/03/09 07:03:34;;;;;;;19.00;17.20;;;;;;;;;;5025586;28;20458;-15
2021/03/09 07:06:02;;;;;;;24.70;19.93;;;;;;;;;;5024234;28;20442;-15
2021/03/09 07:08:31;;;;;;;24.03;19.93;;;;;;;;;;5040020;28;20445;-15
2021/03/09 07:10:58;;;;;;;22.40;20.00;;;;;;;;;;5034779;28;20500;-14
2021/03/09 07:13:26;;;;;;;22.07;19.70;;;;;;;;;;5036346;28;20511;-14
2021/03/09 07:15:55;;;;;;;37.80;21.33;;;;;;;;;;5035032;28;20450;-14
2021/03/09 07:18:24;;;;;;;21.93;19.83;;;;;;;;;;5032292;28;20437;-15
2021/03/09 07:20:52;;;;;;;28.10;20.57;;;;;;;;;;5035272;28;20445;-15
2021/03/09 07:23:22;;;;;;;26.17;20.37;;;;;;;;;;5033972;28;20917;-14
2021/03/09 07:25:59;;;;;;;20.40;18.30;;;;;;;;;;5033773;28;20441;-14
2021/03/09 07:28:29;;;;;;;24.47;21.40;;;;;;;;;;5035696;28;20469;-15
2021/03/09 07:30:58;;;;;;;24.93;21.23;;;;;;;;;;5034067;28;20453;-14
2021/03/09 07:33:30;;;;;;;27.17;21.37;;;;;;;;;;5039483;28;20463;-14
2021/03/09 07:36:03;;;;;;;22.27;20.03;;;;;;;;;;5052827;28;20461;-14
2021/03/09 07:38:31;;;;;;;25.83;21.63;;;;;;;;;;5051268;28;20684;-14
2021/03/09 07:41:00;;;;;;;25.63;21.90;;;;;;;;;;5041578;28;20492;-14
2021/03/09 07:43:28;;;;;;;26.63;24.03;;;;;;;;;;5025944;28;20452;-15
2021/03/09 07:45:56;;;;;;;27.20;24.30;;;;;;;;;;5037031;28;20867;-14
2021/03/09 07:48:28;;;;;;;25.20;22.67;;;;;;;;;;5028394;28;20776;-14
2021/03/09 07:51:03;;;;;;;28.13;23.10;;;;;;;;;;5022457;28;20544;-14
2021/03/09 07:53:31;;;;;;;24.47;21.93;;;;;;;;;;5005115;28;20449;-14
2021/03/09 07:56:14;;;;;;;20.77;18.57;;;;;;;;;;5008888;28;20450;-14
2021/03/09 07:58:43;;;;;;;24.50;21.00;;;;;;;;;;5023230;28;20457;-15
2021/03/09 08:01:11;;;;;;;21.77;19.40;;;;;;;;;;5020332;28;20445;-15
2021/03/09 08:03:39;;;;;;;21.77;19.40;;;;;;;;;;5027758;28;20522;-16
2021/03/09 08:09:33;;;;;;;20.07;18.27;;;;;;;;;;5029053;28;20461;-14
2021/03/09 08:15:16;;;;;;;21.40;18.90;;;;;;;;;;5123083;27;851273;-14
2021/03/09 08:17:45;;;;;;;22.33;19.67;;;;;;;;;;5113695;27;20525;-11
2021/03/09 08:20:29;;;;;;;19.67;17.87;;;;;;;;;;5135000;27;20804;-12
2021/03/09 08:22:56;;;;;;;22.43;20.00;;;;;;;;;;5115026;27;20425;-12
2021/03/09 08:25:38;;;;;;;22.53;19.23;;;;;;;;;;5135559;27;20783;-12
2021/03/09 08:28:21;;;;;;;22.27;19.40;;;;;;;;;;5117494;27;20457;-12
2021/03/09 08:30:50;;;;;;;23.50;20.50;;;;;;;;;;5132266;27;20563;-11
2021/03/09 08:33:27;;;;;;;21.97;19.67;;;;;;;;;;5112571;27;20549;-13
2021/03/09 08:35:55;;;;;;;23.20;20.90;;;;;;;;;;5096727;27;20548;-10
2021/03/09 08:38:23;;;;;;;20.93;18.87;;;;;;;;;;5131413;27;20468;-12
2021/03/09 08:41:10;;;;;;;22.23;20.03;;;;;;;;;;5133364;27;20493;-13
2021/03/09 08:43:41;;;;;;;23.03;20.33;;;;;;;;;;5135281;27;21114;-12
2021/03/09 08:46:10;;;;;;;21.23;19.17;;;;;;;;;;5136226;27;20433;-12
2021/03/09 08:48:50;;;;;;;21.90;19.57;;;;;;;;;;5132525;27;20459;-12
2021/03/09 08:51:51;;;;;;;22.57;20.27;;;;;;;;;;5115551;27;20563;-11
2021/03/09 08:54:41;;;;;;;23.60;20.50;;;;;;;;;;5122016;27;20557;-10
2021/03/09 08:57:11;;;;;;;23.40;19.70;;;;;;;;;;5054605;28;20578;-11
2021/03/09 08:59:40;;;;;;;22.73;20.37;;;;;;;;;;5036039;28;20440;-12
2021/03/09 09:02:09;;;;;;;26.03;21.57;;;;;;;;;;5055278;28;20541;-12
2021/03/09 09:04:38;;;;;;;25.20;22.20;;;;;;;;;;5053732;28;20451;-11
2021/03/09 09:07:20;;;;;;;23.30;20.67;;;;;;;;;;5052221;28;20970;-12
2021/03/09 09:09:49;;;;;;;23.60;21.20;;;;;;;;;;5051719;28;20478;-10
2021/03/09 09:12:34;;;;;;;23.83;21.23;;;;;;;;;;5054093;28;20497;-10
2021/03/09 09:15:12;;;;;;;21.63;19.60;;;;;;;;;;5088231;27;20574;-10
2021/03/09 09:17:40;;;;;;;22.00;19.80;;;;;;;;;;5098367;28;21266;-11
2021/03/09 09:20:09;;;;;;;24.73;22.27;;;;;;;;;;5095548;28;20454;-10
2021/03/09 09:22:36;;;;;;;26.77;22.77;;;;;;;;;;5101617;28;20434;-12
2021/03/09 09:25:05;;;;;;;25.50;21.40;;;;;;;;;;5093400;28;20431;-12
2021/03/09 09:27:43;;;;;;;23.23;20.73;;;;;;;;;;5069002;28;21334;-11
2021/03/09 09:30:12;;;;;;;24.27;21.77;;;;;;;;;;5065149;28;20806;-10
2021/03/09 09:32:47;;;;;;;23.27;20.90;;;;;;;;;;5083607;28;20775;-9
2021/03/09 09:35:14;;;;;;;27.33;22.80;;;;;;;;;;5080900;28;20460;-10
2021/03/09 09:37:49;;;;;;;23.77;21.37;;;;;;;;;;5076072;28;20462;-10
2021/03/09 09:40:17;;;;;;;25.23;20.63;;;;;;;;;;5079034;28;21174;-10
2021/03/09 09:42:51;;;;;;;24.73;22.03;;;;;;;;;;5081310;28;20442;-10
2021/03/09 09:45:20;;;;;;;22.07;19.67;;;;;;;;;;5080372;28;20482;-11
2021/03/09 09:47:48;;;;;;;21.80;19.23;;;;;;;;;;5078671;28;20451;-10
2021/03/09 09:50:15;;;;;;;21.23;19.17;;;;;;;;;;5079701;28;20462;-10
2021/03/09 09:52:53;;;;;;;24.17;20.40;;;;;;;;;;5081756;28;20805;-12
2021/03/09 09:55:21;;;;;;;21.07;18.80;;;;;;;;;;5082736;28;20431;-10
2021/03/09 09:57:51;;;;;;;23.73;20.30;;;;;;;;;;5055533;28;20546;-11
2021/03/09 10:00:25;;;;;;;21.57;19.37;;;;;;;;;;5061086;28;20544;-11
2021/03/09 10:03:09;;;;;;;20.33;18.33;;;;;;;;;;5059980;28;20558;-11
2021/03/09 10:05:39;;;;;;;20.37;18.33;;;;;;;;;;5073425;28;20455;-12
2021/03/09 10:08:09;;;;;;;19.03;17.30;;;;;;;;;;5074609;28;20496;-11
2021/03/09 10:10:39;;;;;;;21.53;19.00;;;;;;;;;;5077534;28;20508;-10
2021/03/09 10:13:21;;;;;;;22.73;20.53;;;;;;;;;;5058457;28;20471;-12
2021/03/09 10:15:55;;;;;;;22.43;20.03;;;;;;;;;;5085319;27;20442;-11
2021/03/09 10:18:27;;;;;;;23.30;19.30;;;;;;;;;;5093392;27;20460;-11
2021/03/09 10:21:03;;;;;;;19.00;17.10;;;;;;;;;;5079905;27;20503;-12
2021/03/09 10:23:33;;;;;;;19.33;17.37;;;;;;;;;;5089778;27;20444;-11
2021/03/09 10:26:03;;;;;;;21.60;19.63;;;;;;;;;;5086990;27;21247;-10
2021/03/09 10:31:16;;;;;;;19.63;17.80;;;;;;;;;;5028140;28;20517;-11
2021/03/09 10:33:59;;;;;;;20.27;18.00;;;;;;;;;;5048202;28;20542;-11
2021/03/09 10:36:27;;;;;;;19.60;17.80;;;;;;;;;;5057054;28;20785;-10
2021/03/09 10:39:12;;;;;;;21.37;19.27;;;;;;;;;;5060375;28;20463;-10
2021/03/09 10:41:40;;;;;;;20.60;18.77;;;;;;;;;;5045409;28;21062;-11
2021/03/09 10:44:27;;;;;;;18.33;16.63;;;;;;;;;;5053090;28;20462;-12
2021/03/09 10:46:56;;;;;;;18.60;16.80;;;;;;;;;;5050998;28;20865;-10
2021/03/09 10:49:26;;;;;;;17.47;15.87;;;;;;;;;;5036928;28;20536;-11
2021/03/09 10:52:01;;;;;;;17.83;16.27;;;;;;;;;;5058177;28;20454;-11
2021/03/09 10:54:30;;;;;;;18.33;16.73;;;;;;;;;;5035001;28;20691;-11
2021/03/09 10:56:58;;;;;;;17.30;15.70;;;;;;;;;;5057769;28;20480;-11
2021/03/09 10:59:26;;;;;;;18.23;16.57;;;;;;;;;;5061100;28;20786;-13
2021/03/09 11:02:08;;;;;;;21.47;19.23;;;;;;;;;;5055163;28;20440;-11
2021/03/09 11:04:36;;;;;;;19.30;17.50;;;;;;;;;;5058663;28;20450;-11
2021/03/09 11:07:04;;;;;;;19.10;17.40;;;;;;;;;;5060281;28;20455;-12
2021/03/09 11:09:31;;;;;;;19.10;17.27;;;;;;;;;;5042854;28;20455;-12
2021/03/09 11:11:59;;;;;;;19.00;16.93;;;;;;;;;;5058793;28;20440;-10
2021/03/09 11:14:26;;;;;;;21.10;18.77;;;;;;;;;;5061307;28;20464;-12
2021/03/09 11:16:53;;;;;;;19.47;17.47;;;;;;;;;;5059107;28;21093;-11
2021/03/09 11:19:52;;;;;;;19.93;17.90;;;;;;;;;;5061544;28;20512;-11
2021/03/09 11:25:58;;;;;;;16.07;14.70;;;;;;;;;;5059109;28;20500;-11
2021/03/09 11:28:25;;;;;;;15.20;13.90;;;;;;;;;;5057044;28;20486;-11
2021/03/09 11:30:52;;;;;;;17.07;15.57;;;;;;;;;;5058129;28;21339;-11
2021/03/09 11:33:36;;;;;;;16.63;15.20;;;;;;;;;;5059705;28;20555;-12
2021/03/09 11:36:03;;;;;;;17.47;16.03;;;;;;;;;;5067197;28;20527;-13
2021/03/09 11:38:34;;;;;;;17.70;16.10;;;;;;;;;;5043182;28;20451;-12
2021/03/09 11:41:01;;;;;;;16.97;15.30;;;;;;;;;;5092908;28;20435;-13
2021/03/09 11:43:28;;;;;;;16.90;15.47;;;;;;;;;;5091175;28;20569;-14
2021/03/09 11:45:56;;;;;;;17.67;15.93;;;;;;;;;;5091643;28;20462;-13
2021/03/09 11:48:24;;;;;;;16.50;15.30;;;;;;;;;;5093619;28;20431;-13
2021/03/09 11:50:52;;;;;;;14.33;13.20;;;;;;;;;;5075866;28;20459;-13
2021/03/09 11:53:19;;;;;;;13.07;12.27;;;;;;;;;;5057514;28;20475;-13
2021/03/09 11:55:47;;;;;;;11.73;11.00;;;;;;;;;;5080850;28;20455;-13
2021/03/09 11:58:18;;;;;;;11.70;11.00;;;;;;;;;;5055830;28;20448;-13
2021/03/09 12:00:45;;;;;;;11.97;11.07;;;;;;;;;;5072153;28;20440;-12
2021/03/09 12:03:12;;;;;;;14.70;13.50;;;;;;;;;;5066347;28;20466;-14
2021/03/09 12:05:40;;;;;;;14.50;13.40;;;;;;;;;;5093972;28;20450;-13
2021/03/09 12:08:08;;;;;;;14.03;12.83;;;;;;;;;;5070556;28;20440;-13
2021/03/09 12:10:35;;;;;;;14.37;13.10;;;;;;;;;;5058601;28;20493;-13
2021/03/09 12:13:04;;;;;;;15.03;13.83;;;;;;;;;;5058332;28;20857;-13
2021/03/09 12:15:31;;;;;;;13.90;13.00;;;;;;;;;;5074731;28;20464;-13
2021/03/09 12:18:04;;;;;;;13.57;12.50;;;;;;;;;;5074165;28;20465;-11
2021/03/09 12:20:31;;;;;;;13.20;12.23;;;;;;;;;;5058700;28;20849;-12
2021/03/09 12:22:59;;;;;;;13.80;12.60;;;;;;;;;;5077255;28;20432;-11
2021/03/09 12:25:27;;;;;;;14.80;13.27;;;;;;;;;;5054831;28;20447;-12
2021/03/09 12:27:54;;;;;;;13.40;12.50;;;;;;;;;;5076986;28;21166;-11
2021/03/09 12:30:23;;;;;;;14.40;13.30;;;;;;;;;;5074795;28;20487;-12
2021/03/09 12:32:50;;;;;;;13.27;12.20;;;;;;;;;;5077774;28;20457;-12
2021/03/09 12:35:18;;;;;;;12.43;11.63;;;;;;;;;;5057601;28;20491;-12
2021/03/09 12:37:45;;;;;;;12.70;11.80;;;;;;;;;;5051958;28;20631;-12
2021/03/09 12:40:13;;;;;;;13.10;12.30;;;;;;;;;;5064261;28;20505;-12
2021/03/09 12:42:41;;;;;;;13.50;12.60;;;;;;;;;;5056539;28;20436;-12
2021/03/09 12:45:09;;;;;;;15.23;13.87;;;;;;;;;;5075647;28;20500;-12
2021/03/09 12:47:37;;;;;;;12.93;12.13;;;;;;;;;;5073968;28;20446;-11
2021/03/09 12:50:06;;;;;;;12.50;11.70;;;;;;;;;;5056538;28;20455;-11
2021/03/09 12:52:34;;;;;;;11.83;11.03;;;;;;;;;;5073365;28;21162;-12
2021/03/09 12:55:02;;;;;;;14.17;13.10;;;;;;;;;;5058537;28;20489;-12
2021/03/09 12:57:29;;;;;;;15.07;13.73;;;;;;;;;;5044772;28;20549;-13
2021/03/09 12:59:57;;;;;;;12.17;11.37;;;;;;;;;;5079246;28;20485;-13
2021/03/09 13:02:26;;;;;;;12.00;11.20;;;;;;;;;;5044017;28;20447;-12
2021/03/09 13:04:55;;;;;;;149.63;81.17;;;;;;;;;;5061421;28;20455;-12
2021/03/09 13:07:22;;;;;;;12.40;11.40;;;;;;;;;;5080027;28;20436;-12
2021/03/09 13:09:49;;;;;;;12.30;11.50;;;;;;;;;;5078230;28;20554;-12
2021/03/09 13:12:16;;;;;;;10.80;10.20;;;;;;;;;;5077456;28;20865;-13
2021/03/09 13:14:45;;;;;;;12.67;11.67;;;;;;;;;;5054899;28;20460;-12
2021/03/09 13:17:12;;;;;;;12.27;11.43;;;;;;;;;;5056510;28;20468;-13
2021/03/09 13:19:39;;;;;;;11.90;11.00;;;;;;;;;;5075484;28;20434;-13
2021/03/09 13:22:08;;;;;;;12.33;11.47;;;;;;;;;;5058674;28;20446;-13
2021/03/09 13:24:40;;;;;;;10.90;10.10;;;;;;;;;;5057236;28;20448;-13
2021/03/09 13:27:08;;;;;;;11.33;10.53;;;;;;;;;;5079729;28;20504;-13
2021/03/09 13:32:43;;;;;;;10.90;10.13;;;;;;;;;;5061705;28;20479;-12
2021/03/09 13:35:21;;;;;;;10.83;10.13;;;;;;;;;;5077544;28;20489;-13
2021/03/09 13:37:50;;;;;;;12.17;11.27;;;;;;;;;;5077132;28;20432;-12
2021/03/09 13:40:18;;;;;;;11.47;10.80;;;;;;;;;;5063863;28;20448;-12
2021/03/09 13:42:45;;;;;;;12.70;11.40;;;;;;;;;;5081215;28;20904;-12
2021/03/09 13:45:13;;;;;;;13.57;12.57;;;;;;;;;;5079244;28;20792;-12
2021/03/09 13:47:40;;;;;;;13.03;12.03;;;;;;;;;;5078552;28;20443;-12
2021/03/09 13:53:05;;;;;;;14.10;13.10;;;;;;;;;;5046570;28;20445;-12
2021/03/09 13:55:33;;;;;;;11.40;10.67;;;;;;;;;;5033163;28;20468;-13
2021/03/09 13:58:00;;;;;;;11.30;10.60;;;;;;;;;;5058478;28;20487;-13
2021/03/09 14:00:27;;;;;;;11.07;10.37;;;;;;;;;;5037179;28;21135;-14
2021/03/09 14:02:55;;;;;;;12.90;11.80;;;;;;;;;;5038508;28;20456;-12
2021/03/09 14:05:24;;;;;;;12.40;11.50;;;;;;;;;;5040280;28;20449;-13
2021/03/09 14:07:51;;;;;;;12.50;11.53;;;;;;;;;;5040286;28;20441;-13
2021/03/09 14:10:19;;;;;;;11.80;10.97;;;;;;;;;;5058730;28;20955;-12
2021/03/09 14:12:47;;;;;;;11.63;10.73;;;;;;;;;;5054520;28;20433;-12
2021/03/09 14:15:15;;;;;;;12.40;11.60;;;;;;;;;;5040133;28;20651;-12
2021/03/09 14:21:17;;;;;;;14.27;13.03;;;;;;;;;;5037552;28;20808;-12
2021/03/09 14:23:59;;;;;;;13.67;12.57;;;;;;;;;;5072526;28;20910;-12
2021/03/09 14:26:31;;;;;;;13.53;12.63;;;;;;;;;;5064235;28;20475;-12
2021/03/09 14:28:59;;;;;;;14.07;12.97;;;;;;;;;;5082363;28;20456;-12
2021/03/09 14:31:27;;;;;;;13.80;12.80;;;;;;;;;;5062456;28;20482;-13
2021/03/09 14:33:54;;;;;;;13.37;12.27;;;;;;;;;;5065167;28;21066;-13
2021/03/09 14:36:21;;;;;;;14.20;12.73;;;;;;;;;;5047819;28;20467;-13
2021/03/09 14:38:49;;;;;;;21.43;19.83;;;;;;;;;;5083317;28;20536;-13
2021/03/09 14:41:17;;;;;;;12.83;11.83;;;;;;;;;;5084037;28;20454;-13
2021/03/09 14:43:46;;;;;;;12.23;11.20;;;;;;;;;;5065070;28;20428;-12
2021/03/09 14:46:13;;;;;;;12.60;11.70;;;;;;;;;;5084014;28;20470;-13
2021/03/09 14:48:40;;;;;;;13.37;12.27;;;;;;;;;;5082889;28;20789;-13
2021/03/09 14:51:08;;;;;;;13.63;12.63;;;;;;;;;;5063431;28;21325;-12
2021/03/09 14:53:35;;;;;;;13.60;12.60;;;;;;;;;;5063273;28;20517;-13
2021/03/09 14:56:02;;;;;;;14.27;13.13;;;;;;;;;;5043110;28;20527;-13